createdAt,value
2023-03-05T00:00:01.645Z,49.7
2023-03-05T00:01:18.750Z,59.2
2023-03-05T00:02:35.855Z,49.4
2023-03-05T00:03:52.960Z,66
2023-03-05T00:05:10.064Z,63.1
2023-03-05T00:06:26.185Z,53.1
2023-03-05T00:07:43.290Z,48.9
2023-03-05T00:09:00.395Z,50.1
2023-03-05T00:10:17.500Z,52
2023-03-05T00:11:34.605Z,56.7
2023-03-05T00:12:51.710Z,53.3
2023-03-05T00:14:08.815Z,54.9
2023-03-05T00:15:25.920Z,48.5
2023-03-05T00:16:43.025Z,49.4
2023-03-05T00:18:00.130Z,58.1
2023-03-05T00:19:17.235Z,57.8
2023-03-05T00:20:34.340Z,50.7
2023-03-05T00:21:51.445Z,56.3
2023-03-05T00:23:07.566Z,54.7
2023-03-05T00:24:24.671Z,60.2
2023-03-05T00:25:41.776Z,69.2
2023-03-05T00:26:58.881Z,49.1
2023-03-05T00:28:15.986Z,54.4
2023-03-05T00:29:33.091Z,59.7
2023-03-05T00:30:50.196Z,63.3
2023-03-05T00:32:07.302Z,70.5
2023-03-05T00:33:24.407Z,48.9
2023-03-05T00:35:58.617Z,51.8
2023-03-05T00:37:15.722Z,55.4
2023-03-05T00:38:32.826Z,47.8
2023-03-05T00:39:48.947Z,50.1
2023-03-05T00:41:06.052Z,56.5
2023-03-05T00:42:23.157Z,47.3
2023-03-05T00:43:40.263Z,62.1
2023-03-05T00:44:57.368Z,53.1
2023-03-05T00:46:14.473Z,48.1
2023-03-05T00:47:31.578Z,59.9
2023-03-05T00:48:48.683Z,62.6
2023-03-05T00:50:05.788Z,49.3
2023-03-05T00:51:22.893Z,61.7
2023-03-05T00:52:39.998Z,48.5
2023-03-05T00:53:57.103Z,54.1
2023-03-05T00:55:14.208Z,48.1
2023-03-05T00:56:30.329Z,54.7
2023-03-05T00:57:47.434Z,60.2
2023-03-05T00:59:03.555Z,50.9
2023-03-05T01:00:20.660Z,50.9
2023-03-05T01:01:37.765Z,48.6
2023-03-05T01:02:54.870Z,49.9
2023-03-05T01:04:11.974Z,58.1
2023-03-05T01:05:29.079Z,49.3
2023-03-05T01:06:46.184Z,62
2023-03-05T01:08:03.290Z,57
2023-03-05T01:09:20.396Z,47.6
2023-03-05T01:10:37.501Z,63.4
2023-03-05T01:11:54.605Z,47.2
2023-03-05T01:13:11.711Z,49.1
2023-03-05T01:14:28.816Z,62.1
2023-03-05T01:15:44.937Z,56.5
2023-03-05T01:17:02.043Z,47.5
2023-03-05T01:18:19.148Z,55.2
2023-03-05T01:19:36.253Z,48.6
2023-03-05T01:20:53.358Z,49.1
2023-03-05T01:22:10.463Z,53.3
2023-03-05T01:23:27.568Z,49.9
2023-03-05T01:24:44.673Z,47.6
2023-03-05T01:26:01.778Z,47.3
2023-03-05T01:27:18.883Z,56.7
2023-03-05T01:28:35.988Z,51.4
2023-03-05T01:29:53.093Z,48.8
2023-03-05T01:31:10.199Z,49.1
2023-03-05T01:32:26.320Z,50.2
2023-03-05T01:33:43.425Z,48.1
2023-03-05T01:35:00.530Z,62.6
2023-03-05T01:36:17.635Z,48.5
2023-03-05T01:37:34.740Z,49.3
2023-03-05T01:38:51.846Z,48
2023-03-05T01:40:08.951Z,65
2023-03-05T01:41:26.056Z,57.3
2023-03-05T01:42:43.161Z,48.1
2023-03-05T01:44:00.266Z,47.2
2023-03-05T01:45:17.372Z,49.9
2023-03-05T01:46:34.477Z,56.2
2023-03-05T01:47:51.582Z,47.6
2023-03-05T01:49:07.703Z,46.8
2023-03-05T01:50:24.808Z,46.8
2023-03-05T01:51:41.913Z,47.6
2023-03-05T01:52:59.019Z,56.2
2023-03-05T01:54:16.124Z,49.7
2023-03-05T01:55:33.229Z,48.3
2023-03-05T01:56:50.334Z,47.6
2023-03-05T01:58:07.439Z,56.7
2023-03-05T01:59:24.545Z,50.1
2023-03-05T02:00:41.650Z,47
2023-03-05T02:01:58.755Z,48.1
2023-03-05T02:03:15.860Z,53
2023-03-05T02:04:32.965Z,47.5
2023-03-05T02:05:49.086Z,47.6
2023-03-05T02:07:06.192Z,59.7
2023-03-05T02:08:23.297Z,47.6
2023-03-05T02:09:40.402Z,47.6
2023-03-05T02:10:57.507Z,47
2023-03-05T02:12:14.612Z,62.3
2023-03-05T02:13:31.717Z,56.3
2023-03-05T02:14:48.822Z,47.2
2023-03-05T02:16:05.927Z,46.4
2023-03-05T02:17:23.032Z,46.7
2023-03-05T02:18:40.137Z,46.8
2023-03-05T02:19:57.242Z,56.8
2023-03-05T02:21:14.347Z,48.5
2023-03-05T02:22:30.468Z,50.4
2023-03-05T02:23:47.573Z,67.3
2023-03-05T02:25:04.678Z,59.1
2023-03-05T02:26:21.783Z,56
2023-03-05T02:27:38.888Z,51.8
2023-03-05T02:28:55.993Z,57.3
2023-03-05T02:30:13.097Z,46.5
2023-03-05T02:31:30.202Z,46.8
2023-03-05T02:32:47.307Z,54.3
2023-03-05T02:34:04.412Z,64.9
2023-03-05T02:35:21.517Z,55.4
2023-03-05T02:36:38.622Z,61.3
2023-03-05T02:37:55.727Z,56.3
2023-03-05T02:39:11.849Z,48
2023-03-05T02:40:28.954Z,47
2023-03-05T02:41:46.059Z,47.2
2023-03-05T02:43:03.164Z,47.2
2023-03-05T02:44:20.269Z,47.2
2023-03-05T02:45:37.374Z,59.4
2023-03-05T02:46:54.479Z,47
2023-03-05T02:48:11.585Z,48.3
2023-03-05T02:49:28.690Z,46.8
2023-03-05T02:50:45.795Z,58.9
2023-03-05T02:52:02.901Z,56.8
2023-03-05T02:53:20.006Z,47.5
2023-03-05T02:54:37.111Z,50.2
2023-03-05T02:55:53.232Z,50.5
2023-03-05T02:57:10.337Z,58.4
2023-03-05T02:58:27.442Z,46.8
2023-03-05T02:59:44.548Z,47
2023-03-05T03:01:01.653Z,48.5
2023-03-05T03:02:18.758Z,61.3
2023-03-05T03:03:35.863Z,47.2
2023-03-05T03:04:52.968Z,47
2023-03-05T03:06:10.074Z,50.1
2023-03-05T03:07:27.179Z,47.3
2023-03-05T03:08:44.284Z,48.6
2023-03-05T03:10:01.389Z,47.5
2023-03-05T03:11:18.494Z,47.2
2023-03-05T03:12:34.615Z,48
2023-03-05T03:13:51.720Z,49.9
2023-03-05T03:15:08.825Z,56.2
2023-03-05T03:16:25.931Z,52.8
2023-03-05T03:17:43.036Z,49.6
2023-03-05T03:19:00.141Z,48.1
2023-03-05T03:20:17.246Z,49.1
2023-03-05T03:21:34.351Z,47.5
2023-03-05T03:22:51.457Z,48.1
2023-03-05T03:26:42.772Z,49.4
2023-03-05T03:27:59.877Z,67
2023-03-05T03:29:15.999Z,59.1
2023-03-05T03:30:33.104Z,47
2023-03-05T03:31:50.209Z,53.6
2023-03-05T03:33:07.314Z,47.8
2023-03-05T03:34:24.420Z,48.5
2023-03-05T03:35:41.525Z,52
2023-03-05T03:36:58.630Z,49.7
2023-03-05T03:38:15.735Z,48
2023-03-05T03:39:32.840Z,56.5
2023-03-05T03:40:49.945Z,48.9
2023-03-05T03:42:07.050Z,48.1
2023-03-05T03:43:24.156Z,56.7
2023-03-05T03:44:41.261Z,47.5
2023-03-05T03:45:57.383Z,49.6
2023-03-05T03:47:14.488Z,59.4
2023-03-05T03:48:31.593Z,48
2023-03-05T03:49:48.698Z,46.8
2023-03-05T03:51:05.803Z,48.5
2023-03-05T03:52:22.908Z,48.1
2023-03-05T03:53:40.014Z,52
2023-03-05T03:54:57.119Z,48.1
2023-03-05T03:56:14.224Z,50.4
2023-03-05T03:57:31.330Z,48.3
2023-03-05T03:58:48.435Z,47.2
2023-03-05T04:00:05.540Z,47.2
2023-03-05T04:01:22.645Z,62.6
2023-03-05T04:02:38.766Z,47.2
2023-03-05T04:03:55.872Z,47.3
2023-03-05T04:05:12.977Z,46.8
2023-03-05T04:06:30.082Z,61.2
2023-03-05T04:07:47.187Z,50.7
2023-03-05T04:09:04.293Z,47
2023-03-05T04:10:21.398Z,47.6
2023-03-05T04:11:38.503Z,47.3
2023-03-05T04:12:55.608Z,48.1
2023-03-05T04:14:12.713Z,52
2023-03-05T04:15:29.818Z,47.6
2023-03-05T04:16:46.924Z,47
2023-03-05T04:18:04.029Z,47.6
2023-03-05T04:19:20.150Z,48.1
2023-03-05T04:20:37.255Z,47.3
2023-03-05T04:21:54.360Z,47
2023-03-05T04:23:11.464Z,48
2023-03-05T04:24:28.569Z,48.5
2023-03-05T04:25:45.674Z,48.5
2023-03-05T04:28:19.885Z,47.2
2023-03-05T04:29:36.990Z,47.2
2023-03-05T04:30:54.095Z,47.2
2023-03-05T04:32:11.200Z,47.3
2023-03-05T04:33:28.305Z,49.9
2023-03-05T04:34:45.410Z,47.8
2023-03-05T04:36:01.532Z,61.7
2023-03-05T04:37:18.637Z,47.5
2023-03-05T04:38:35.743Z,48.5
2023-03-05T04:39:52.848Z,60.5
2023-03-05T04:41:09.953Z,47.3
2023-03-05T04:42:27.058Z,51
2023-03-05T04:43:44.163Z,48
2023-03-05T04:45:01.268Z,56.3
2023-03-05T04:46:18.374Z,67.1
2023-03-05T04:47:35.479Z,47.6
2023-03-05T04:48:52.584Z,48.5
2023-03-05T04:50:09.689Z,51
2023-03-05T04:51:26.795Z,50.7
2023-03-05T04:52:42.916Z,50.4
2023-03-05T04:53:59.042Z,47.6
2023-03-05T04:55:15.164Z,56.8
2023-03-05T04:56:32.269Z,48.5
2023-03-05T04:57:49.374Z,58.9
2023-03-05T04:59:06.479Z,48.5
2023-03-05T05:00:23.584Z,47.8
2023-03-05T05:02:57.795Z,71.5
2023-03-05T05:04:13.921Z,48.5
2023-03-05T05:05:30.043Z,49.1
2023-03-05T05:06:47.148Z,50.4
2023-03-05T05:08:04.253Z,61.3
2023-03-05T05:09:21.359Z,47.6
2023-03-05T05:11:55.569Z,48.1
2023-03-05T05:13:12.674Z,58.9
2023-03-05T05:14:29.779Z,47.6
2023-03-05T05:15:46.884Z,47.8
2023-03-05T05:17:03.005Z,47.3
2023-03-05T05:18:20.110Z,48
2023-03-05T05:19:37.215Z,47.5
2023-03-05T05:20:54.320Z,47.6
2023-03-05T05:22:11.425Z,62.1
2023-03-05T05:23:28.531Z,59.2
2023-03-05T05:24:45.636Z,55.4
2023-03-05T05:26:02.741Z,48
2023-03-05T05:27:19.846Z,48.3
2023-03-05T05:28:36.952Z,48.6
2023-03-05T05:29:54.057Z,48.9
2023-03-05T05:31:11.162Z,47.8
2023-03-05T05:32:28.268Z,60.4
2023-03-05T05:33:44.389Z,47.2
2023-03-05T05:35:01.494Z,48.5
2023-03-05T05:36:18.599Z,48.6
2023-03-05T05:37:35.705Z,58.3
2023-03-05T05:38:52.811Z,48.1
2023-03-05T05:40:09.916Z,49.6
2023-03-05T05:41:27.021Z,48.5
2023-03-05T05:42:44.127Z,47.8
2023-03-05T05:44:01.232Z,64.7
2023-03-05T05:45:18.337Z,49.9
2023-03-05T05:46:35.442Z,65.7
2023-03-05T05:47:52.547Z,47.5
2023-03-05T05:49:09.652Z,61.2
2023-03-05T05:50:26.758Z,49.3
2023-03-05T05:51:42.879Z,47.2
2023-03-05T05:52:59.984Z,66.8
2023-03-05T05:54:17.090Z,53.8
2023-03-05T05:55:34.195Z,53.8
2023-03-05T05:56:51.300Z,47.5
2023-03-05T05:59:25.508Z,49.7
2023-03-05T06:00:42.614Z,68.6
2023-03-05T06:01:59.719Z,69.7
2023-03-05T06:03:16.824Z,83.6
2023-03-05T06:04:33.930Z,48.3
2023-03-05T06:05:51.035Z,51.4
2023-03-05T06:07:08.140Z,48.9
2023-03-05T06:08:24.261Z,47.8
2023-03-05T06:10:58.471Z,57.2
2023-03-05T06:12:15.577Z,55.2
2023-03-05T06:13:32.682Z,57.5
2023-03-05T06:16:06.892Z,54.7
2023-03-05T06:17:23.019Z,48.3
2023-03-05T06:18:39.140Z,52.6
2023-03-05T06:19:56.245Z,57.2
2023-03-05T06:21:13.350Z,48.9
2023-03-05T06:22:30.455Z,60.1
2023-03-05T06:23:47.561Z,59.4
2023-03-05T06:25:04.666Z,48.3
2023-03-05T06:26:21.771Z,48.9
2023-03-05T06:28:55.981Z,48
2023-03-05T06:30:13.086Z,49.7
2023-03-05T06:31:30.192Z,59.9
2023-03-05T06:32:47.297Z,48.8
2023-03-05T06:34:04.402Z,49.9
2023-03-05T06:35:20.523Z,49.9
2023-03-05T06:37:54.734Z,64.4
2023-03-05T06:39:10.860Z,64.2
2023-03-05T06:41:44.088Z,54.7
2023-03-05T06:43:01.193Z,58.9
2023-03-05T06:44:18.298Z,57
2023-03-05T06:45:35.403Z,82.6
2023-03-05T06:46:52.508Z,87
2023-03-05T06:48:09.614Z,91.2
2023-03-05T06:49:26.719Z,91.8
2023-03-05T06:50:43.824Z,84.2
2023-03-05T06:52:00.929Z,48.9
2023-03-05T06:53:18.035Z,55.9
2023-03-05T06:54:35.140Z,58.3
2023-03-05T06:55:51.266Z,58.6
2023-03-05T06:58:24.493Z,58.9
2023-03-05T06:59:41.598Z,53.1
2023-03-05T07:00:58.704Z,56.5
2023-03-05T07:02:15.809Z,51.4
2023-03-05T07:03:32.915Z,61.7
2023-03-05T07:04:50.020Z,67.9
2023-03-05T07:06:07.125Z,49.4
2023-03-05T07:07:24.231Z,53
2023-03-05T07:08:41.336Z,58.3
2023-03-05T07:09:58.441Z,53.8
2023-03-05T07:11:14.568Z,61.2
2023-03-05T07:12:30.689Z,51.4
2023-03-05T07:13:47.795Z,51
2023-03-05T07:15:04.900Z,54.3
2023-03-05T07:16:22.006Z,48.9
2023-03-05T07:17:39.111Z,49.9
2023-03-05T07:18:56.216Z,63.8
2023-03-05T07:20:13.321Z,48.1
2023-03-05T07:21:30.427Z,58.4
2023-03-05T07:22:47.532Z,49.9
2023-03-05T07:24:04.638Z,56.2
2023-03-05T07:25:21.743Z,56.8
2023-03-05T07:26:38.849Z,66.5
2023-03-05T07:27:55.954Z,62
2023-03-05T07:29:12.076Z,58.8
2023-03-05T07:30:29.181Z,58.4
2023-03-05T07:31:46.286Z,49.4
2023-03-05T07:33:03.391Z,61.2
2023-03-05T07:34:20.496Z,57.5
2023-03-05T07:35:37.602Z,48.9
2023-03-05T07:36:54.707Z,51.5
2023-03-05T07:38:10.833Z,49.9
2023-03-05T07:39:26.955Z,62.6
2023-03-05T07:40:43.081Z,53
2023-03-05T07:41:59.203Z,60.4
2023-03-05T07:43:16.308Z,60.7
2023-03-05T07:45:50.519Z,56.7
2023-03-05T07:47:07.624Z,67.1
2023-03-05T07:48:24.729Z,62.3
2023-03-05T07:49:41.834Z,62.1
2023-03-05T07:50:58.939Z,62.6
2023-03-05T07:52:16.044Z,68.9
2023-03-05T07:53:33.149Z,62.5
2023-03-05T07:54:50.254Z,62.8
2023-03-05T07:56:07.358Z,60.9
2023-03-05T07:57:24.463Z,62.6
2023-03-05T07:58:41.568Z,53.9
2023-03-05T07:59:57.689Z,58.6
2023-03-05T08:02:31.899Z,67.8
2023-03-05T08:03:48.025Z,64.1
2023-03-05T08:05:04.146Z,65.7
2023-03-05T08:06:21.251Z,48.8
2023-03-05T08:07:38.356Z,59.4
2023-03-05T08:08:55.461Z,63.6
2023-03-05T08:10:12.566Z,65.2
2023-03-05T08:11:29.671Z,61.2
2023-03-05T08:12:46.776Z,63
2023-03-05T08:14:03.881Z,49.3
2023-03-05T08:15:20.985Z,58.1
2023-03-05T08:16:38.090Z,65
2023-03-05T08:17:55.196Z,55.5
2023-03-05T08:19:11.322Z,64.6
2023-03-05T08:20:27.443Z,59.7
2023-03-05T08:21:44.548Z,62.5
2023-03-05T08:24:18.758Z,60.5
2023-03-05T08:25:35.862Z,60.4
2023-03-05T08:26:52.967Z,66
2023-03-05T08:29:27.177Z,55.7
2023-03-05T08:30:44.282Z,62.6
2023-03-05T08:32:01.387Z,62.5
2023-03-05T08:33:18.492Z,58.1
2023-03-05T08:34:35.597Z,59.4
2023-03-05T08:35:51.723Z,54.4
2023-03-05T08:37:08.828Z,49.3
2023-03-05T08:38:24.949Z,57.6
2023-03-05T08:39:42.054Z,61.2
2023-03-05T08:40:59.159Z,62.1
2023-03-05T08:42:16.264Z,67
2023-03-05T08:43:33.369Z,58.3
2023-03-05T08:44:50.474Z,63.6
2023-03-05T08:46:07.579Z,63.9
2023-03-05T08:47:24.684Z,58.1
2023-03-05T08:48:41.789Z,64.7
2023-03-05T08:49:57.915Z,60.9
2023-03-05T08:51:14.036Z,61.8
2023-03-05T08:52:31.141Z,66.8
2023-03-05T08:53:48.246Z,69.2
2023-03-05T08:55:05.351Z,69.1
2023-03-05T08:56:22.456Z,63.1
2023-03-05T08:57:39.561Z,63.8
2023-03-05T08:58:56.666Z,61.3
2023-03-05T09:00:13.771Z,59.7
2023-03-05T09:01:30.876Z,68.4
2023-03-05T09:02:47.981Z,68.9
2023-03-05T09:04:05.085Z,62.1
2023-03-05T09:05:22.190Z,72
2023-03-05T09:06:39.295Z,61
2023-03-05T09:07:55.416Z,66
2023-03-05T09:11:46.731Z,59.1
2023-03-05T09:13:02.857Z,55.5
2023-03-05T09:14:18.978Z,61.2
2023-03-05T09:15:36.083Z,60.2
2023-03-05T09:16:53.188Z,55.2
2023-03-05T09:18:10.292Z,66
2023-03-05T09:19:27.397Z,61.3
2023-03-05T09:20:44.503Z,63
2023-03-05T09:22:01.608Z,64.6
2023-03-05T09:23:18.712Z,61.7
2023-03-05T09:24:35.817Z,58.3
2023-03-05T09:25:52.922Z,53.9
2023-03-05T09:28:27.132Z,52.5
2023-03-05T09:29:44.237Z,65.2
2023-03-05T09:31:00.358Z,63.6
2023-03-05T09:32:17.463Z,63.1
2023-03-05T09:33:34.568Z,62.8
2023-03-05T09:34:51.673Z,58.1
2023-03-05T09:36:07.794Z,54.9
2023-03-05T09:37:24.899Z,64.9
2023-03-05T09:38:42.004Z,63.1
2023-03-05T09:39:59.109Z,58.9
2023-03-05T09:41:15.235Z,65.4
2023-03-05T09:42:31.356Z,65.4
2023-03-05T09:43:48.461Z,53.9
2023-03-05T09:45:05.566Z,60.9
2023-03-05T09:46:22.671Z,85.5
2023-03-05T09:47:39.776Z,86.2
2023-03-05T09:48:56.881Z,81.6
2023-03-05T09:50:13.986Z,82.1
2023-03-05T09:51:31.090Z,77.1
2023-03-05T09:52:48.195Z,59.7
2023-03-05T09:54:05.300Z,63.6
2023-03-05T09:55:22.405Z,58.4
2023-03-05T09:56:39.510Z,66
2023-03-05T09:57:56.615Z,63.4
2023-03-05T09:59:12.736Z,63.4
2023-03-05T10:00:29.841Z,76.8
2023-03-05T10:01:46.946Z,60.1
2023-03-05T10:03:04.051Z,60.4
2023-03-05T10:04:21.155Z,62.6
2023-03-05T10:05:38.260Z,66
2023-03-05T10:06:55.366Z,59.2
2023-03-05T10:08:12.471Z,61.5
2023-03-05T10:09:29.576Z,65.2
2023-03-05T10:10:46.681Z,61
2023-03-05T10:12:03.786Z,61.7
2023-03-05T10:13:20.890Z,65.4
2023-03-05T10:14:37.995Z,67
2023-03-05T10:15:54.116Z,63.8
2023-03-05T10:17:11.221Z,67.3
2023-03-05T10:18:28.327Z,63.3
2023-03-05T10:19:45.432Z,60.2
2023-03-05T10:21:02.537Z,61.2
2023-03-05T10:22:19.642Z,62.5
2023-03-05T10:23:36.747Z,56.8
2023-03-05T10:24:53.852Z,62.3
2023-03-05T10:26:10.957Z,64.2
2023-03-05T10:27:28.061Z,62.6
2023-03-05T10:28:45.166Z,56.3
2023-03-05T10:30:02.271Z,67
2023-03-05T10:31:19.377Z,64.7
2023-03-05T10:32:36.482Z,63.9
2023-03-05T10:33:52.603Z,60.7
2023-03-05T10:35:09.708Z,54.7
2023-03-05T10:36:26.813Z,58.6
2023-03-05T10:37:43.918Z,70
2023-03-05T10:39:01.022Z,62.1
2023-03-05T10:40:18.127Z,63.6
2023-03-05T10:41:35.232Z,62.6
2023-03-05T10:42:52.337Z,55.7
2023-03-05T10:45:26.548Z,60.9
2023-03-05T10:46:43.653Z,62.6
2023-03-05T10:48:00.757Z,64.4
2023-03-05T10:49:17.862Z,60.2
2023-03-05T10:50:33.983Z,65.7
2023-03-05T10:51:51.088Z,67.6
2023-03-05T10:53:08.193Z,60.2
2023-03-05T10:54:25.298Z,67.9
2023-03-05T10:55:42.403Z,68.9
2023-03-05T10:56:59.508Z,64.4
2023-03-05T10:58:16.613Z,68.8
2023-03-05T10:59:33.717Z,63.4
2023-03-05T11:00:50.822Z,78.6
2023-03-05T11:02:07.927Z,75.4
2023-03-05T11:03:25.032Z,81.3
2023-03-05T11:04:42.137Z,63.1
2023-03-05T11:05:58.263Z,59.4
2023-03-05T11:07:14.384Z,66.8
2023-03-05T11:08:31.489Z,64.7
2023-03-05T11:09:48.595Z,58.3
2023-03-05T11:11:05.700Z,64.4
2023-03-05T11:12:21.826Z,62.1
2023-03-05T11:14:55.051Z,58.8
2023-03-05T11:16:12.156Z,62.3
2023-03-05T11:17:29.261Z,63.1
2023-03-05T11:18:46.366Z,59.7
2023-03-05T11:21:20.576Z,64.4
2023-03-05T11:22:37.681Z,58.8
2023-03-05T11:23:54.785Z,63.3
2023-03-05T11:25:11.890Z,60.5
2023-03-05T11:26:28.995Z,61.8
2023-03-05T11:27:46.100Z,52
2023-03-05T11:29:03.205Z,61
2023-03-05T11:30:19.326Z,66.3
2023-03-05T11:31:36.431Z,66.7
2023-03-05T11:32:53.536Z,63.8
2023-03-05T11:34:10.641Z,64.6
2023-03-05T11:36:44.851Z,53.1
2023-03-05T11:38:00.977Z,63.1
2023-03-05T11:39:17.098Z,61.8
2023-03-05T11:40:34.203Z,64.9
2023-03-05T11:41:51.307Z,50.4
2023-03-05T11:43:08.413Z,65.7
2023-03-05T11:44:25.517Z,61.7
2023-03-05T11:45:42.622Z,63.3
2023-03-05T11:46:59.727Z,62.1
2023-03-05T11:48:16.832Z,62.3
2023-03-05T11:49:33.936Z,67.5
2023-03-05T11:50:51.041Z,70.4
2023-03-05T11:52:07.167Z,70.2
2023-03-05T11:53:24.272Z,61.2
2023-03-05T11:54:40.393Z,65.2
2023-03-05T11:55:57.498Z,68.1
2023-03-05T11:57:14.601Z,63.9
2023-03-05T11:58:31.706Z,64.1
2023-03-05T12:02:23.020Z,58.9
2023-03-05T12:03:40.125Z,67.9
2023-03-05T12:04:57.230Z,59.1
2023-03-05T12:06:14.335Z,63.3
2023-03-05T12:08:48.544Z,62.1
2023-03-05T12:10:04.670Z,67.5
2023-03-05T12:11:20.791Z,67.8
2023-03-05T12:12:37.896Z,66.3
2023-03-05T12:13:55.000Z,60.7
2023-03-05T12:15:12.105Z,57.6
2023-03-05T12:16:29.210Z,59.6
2023-03-05T12:17:46.315Z,58.8
2023-03-05T12:19:03.420Z,59.2
2023-03-05T12:20:20.524Z,63.8
2023-03-05T12:21:37.629Z,64.4
2023-03-05T12:24:11.839Z,56.7
2023-03-05T12:25:28.943Z,67.1
2023-03-05T12:26:46.048Z,67.1
2023-03-05T12:28:03.153Z,66.3
2023-03-05T12:29:19.274Z,66.2
2023-03-05T12:31:53.484Z,61.2
2023-03-05T12:33:09.610Z,62.8
2023-03-05T12:34:25.731Z,67
2023-03-05T12:35:42.835Z,59.7
2023-03-05T12:36:59.941Z,66.2
2023-03-05T12:38:17.046Z,68.1
2023-03-05T12:39:34.151Z,66.5
2023-03-05T12:40:51.255Z,60.2
2023-03-05T12:42:08.360Z,64.2
2023-03-05T12:43:25.465Z,65.7
2023-03-05T12:44:42.570Z,61.7
2023-03-05T12:45:59.675Z,56.3
2023-03-05T12:47:15.801Z,55.4
2023-03-05T12:48:31.922Z,66.3
2023-03-05T12:49:49.027Z,61.8
2023-03-05T12:51:06.131Z,61.8
2023-03-05T12:52:23.236Z,66.5
2023-03-05T12:53:40.341Z,61
2023-03-05T12:54:57.446Z,63.1
2023-03-05T12:56:14.551Z,61.7
2023-03-05T12:57:31.656Z,61.5
2023-03-05T12:58:48.760Z,69.9
2023-03-05T13:00:05.865Z,58.1
2023-03-05T13:01:21.991Z,63.6
2023-03-05T13:02:39.097Z,64.9
2023-03-05T13:03:55.218Z,75
2023-03-05T13:05:12.323Z,66.2
2023-03-05T13:06:29.427Z,64.2
2023-03-05T13:07:46.532Z,66.3
2023-03-05T13:09:03.637Z,62.5
2023-03-05T13:10:20.742Z,63
2023-03-05T13:11:37.846Z,67.9
2023-03-05T13:12:54.951Z,65.7
2023-03-05T13:14:12.056Z,66.3
2023-03-05T13:15:29.161Z,58.6
2023-03-05T13:16:46.265Z,65.7
2023-03-05T13:18:03.370Z,59.9
2023-03-05T13:19:20.475Z,63.9
2023-03-05T13:20:36.596Z,65.7
2023-03-05T13:21:53.701Z,63
2023-03-05T13:23:10.805Z,64.2
2023-03-05T13:24:27.910Z,63
2023-03-05T13:25:45.015Z,62.8
2023-03-05T13:27:02.120Z,71
2023-03-05T13:28:18.246Z,64.9
2023-03-05T13:29:34.367Z,62.6
2023-03-05T13:30:50.493Z,64.6
2023-03-05T13:32:06.613Z,67.1
2023-03-05T13:33:23.718Z,65
2023-03-05T13:34:40.823Z,61.5
2023-03-05T13:35:57.928Z,62.5
2023-03-05T13:37:15.033Z,67
2023-03-05T13:38:32.138Z,61.2
2023-03-05T13:41:06.347Z,66.8
2023-03-05T13:42:23.452Z,69.2
2023-03-05T13:43:40.557Z,62
2023-03-05T13:44:57.662Z,65.4
2023-03-05T13:46:14.767Z,74.6
2023-03-05T13:47:31.872Z,73.3
2023-03-05T13:48:47.993Z,72.9
2023-03-05T13:50:05.098Z,77.9
2023-03-05T13:51:22.203Z,67.5
2023-03-05T13:52:39.307Z,62
2023-03-05T13:53:55.428Z,67
2023-03-05T13:55:12.533Z,63.9
2023-03-05T13:56:29.638Z,67.9
2023-03-05T13:57:46.743Z,66.5
2023-03-05T13:59:02.869Z,61
2023-03-05T14:00:18.990Z,63.4
2023-03-05T14:01:35.116Z,60.7
2023-03-05T14:02:51.237Z,66
2023-03-05T14:04:08.342Z,63.1
2023-03-05T14:05:25.447Z,67.3
2023-03-05T14:06:42.552Z,64.4
2023-03-05T14:07:59.657Z,63.6
2023-03-05T14:09:16.762Z,60.7
2023-03-05T14:10:33.867Z,66.7
2023-03-05T14:13:08.076Z,57.6
2023-03-05T14:14:25.182Z,67.3
2023-03-05T14:15:42.286Z,62.1
2023-03-05T14:16:59.391Z,55.5
2023-03-05T14:18:16.496Z,62.3
2023-03-05T14:19:33.601Z,70.7
2023-03-05T14:20:49.722Z,60.9
2023-03-05T14:23:23.932Z,61
2023-03-05T14:24:40.058Z,60.9
2023-03-05T14:25:56.179Z,67.5
2023-03-05T14:27:13.284Z,64.9
2023-03-05T14:28:30.389Z,60.2
2023-03-05T14:29:47.494Z,69.9
2023-03-05T14:31:04.599Z,61.3
2023-03-05T14:32:21.704Z,57.8
2023-03-05T14:33:38.809Z,64.2
2023-03-05T14:34:55.914Z,66
2023-03-05T14:36:13.019Z,63.6
2023-03-05T14:37:30.123Z,68.9
2023-03-05T14:38:46.249Z,63.1
2023-03-05T14:40:02.370Z,60.4
2023-03-05T14:41:19.476Z,62
2023-03-05T14:42:36.580Z,64.9
2023-03-05T14:43:53.685Z,60.7
2023-03-05T14:45:10.790Z,64.7
2023-03-05T14:46:27.895Z,66.3
2023-03-05T14:47:45.000Z,58.1
2023-03-05T14:49:02.104Z,60.7
2023-03-05T14:50:19.209Z,56.8
2023-03-05T14:51:36.314Z,66.7
2023-03-05T14:52:53.419Z,66.7
2023-03-05T14:54:10.524Z,60.2
2023-03-05T14:55:27.629Z,58
2023-03-05T14:56:43.749Z,64.1
2023-03-05T14:58:00.854Z,56.5
2023-03-05T15:01:52.168Z,63
2023-03-05T15:03:08.295Z,67.3
2023-03-05T15:04:24.416Z,57.6
2023-03-05T15:05:41.521Z,63.6
2023-03-05T15:06:58.625Z,56.3
2023-03-05T15:08:15.730Z,67.5
2023-03-05T15:09:32.835Z,66.7
2023-03-05T15:10:49.940Z,66.3
2023-03-05T15:13:24.149Z,61.8
2023-03-05T15:14:41.254Z,60.5
2023-03-05T15:15:58.359Z,65.9
2023-03-05T15:17:15.464Z,70.8
2023-03-05T15:18:32.569Z,59.7
2023-03-05T15:19:49.674Z,68.3
2023-03-05T15:21:05.794Z,62.5
2023-03-05T15:22:22.899Z,64.4
2023-03-05T15:23:40.004Z,62.8
2023-03-05T15:24:57.109Z,64.6
2023-03-05T15:26:14.213Z,66.8
2023-03-05T15:27:31.319Z,67.9
2023-03-05T15:28:48.423Z,61
2023-03-05T15:30:05.528Z,62.3
2023-03-05T15:31:21.654Z,67.5
2023-03-05T15:32:37.775Z,54.4
2023-03-05T15:33:54.880Z,64.9
2023-03-05T15:35:11.985Z,59.7
2023-03-05T15:36:29.090Z,66
2023-03-05T15:37:46.194Z,63.8
2023-03-05T15:40:20.404Z,56
2023-03-05T15:41:37.509Z,53.3
2023-03-05T15:42:54.614Z,61.5
2023-03-05T15:44:11.720Z,59.9
2023-03-05T15:45:28.825Z,55.5
2023-03-05T15:46:45.930Z,58.4
2023-03-05T15:48:03.034Z,63.9
2023-03-05T15:49:19.155Z,61
2023-03-05T15:50:36.260Z,62.1
2023-03-05T15:53:10.470Z,63.8
2023-03-05T15:54:27.575Z,60.9
2023-03-05T15:55:43.701Z,64.1
2023-03-05T15:56:59.822Z,59.2
2023-03-05T15:58:16.927Z,66.7
2023-03-05T15:59:34.033Z,59.7
2023-03-05T16:00:51.137Z,60.4
2023-03-05T16:02:08.242Z,62.6
2023-03-05T16:03:25.347Z,61.7
2023-03-05T16:07:16.662Z,64.6
2023-03-05T16:08:33.766Z,66.7
2023-03-05T16:09:50.871Z,65.9
2023-03-05T16:11:07.976Z,64.9
2023-03-05T16:12:24.102Z,60.5
2023-03-05T16:13:40.223Z,53
2023-03-05T16:14:57.328Z,64.7
2023-03-05T16:16:14.432Z,60.1
2023-03-05T16:18:48.642Z,57.6
2023-03-05T16:20:05.747Z,62
2023-03-05T16:21:22.852Z,69.9
2023-03-05T16:23:57.061Z,66.2
2023-03-05T16:25:14.166Z,60.9
2023-03-05T16:26:31.271Z,70.5
2023-03-05T16:27:48.376Z,58.1
2023-03-05T16:29:05.481Z,65
2023-03-05T16:30:21.602Z,68.4
2023-03-05T16:31:38.706Z,70.2
2023-03-05T16:32:55.811Z,55.1
2023-03-05T16:34:12.916Z,60.2
2023-03-05T16:35:30.020Z,62.8
2023-03-05T16:36:47.125Z,61.3
2023-03-05T16:38:04.230Z,67.3
2023-03-05T16:39:21.335Z,56
2023-03-05T16:40:38.440Z,56.7
2023-03-05T16:41:55.544Z,59.4
2023-03-05T16:43:12.649Z,69.2
2023-03-05T16:45:46.859Z,62
2023-03-05T16:47:02.979Z,59.4
2023-03-05T16:48:20.084Z,64.4
2023-03-05T16:49:37.189Z,69.1
2023-03-05T16:50:53.315Z,63.9
2023-03-05T16:52:09.436Z,61.2
2023-03-05T16:53:26.541Z,56.7
2023-03-05T16:54:43.646Z,62.1
2023-03-05T16:56:00.751Z,68.1
2023-03-05T16:57:17.856Z,61.7
2023-03-05T16:58:34.961Z,60.4
2023-03-05T16:59:52.066Z,65.9
2023-03-05T17:01:09.170Z,65.5
2023-03-05T17:02:26.275Z,70.5
2023-03-05T17:03:43.380Z,67.3
2023-03-05T17:04:59.506Z,61.8
2023-03-05T17:06:15.627Z,60.5
2023-03-05T17:07:32.732Z,63.4
2023-03-05T17:08:49.837Z,67
2023-03-05T17:10:06.942Z,61.8
2023-03-05T17:11:24.046Z,61.7
2023-03-05T17:12:41.151Z,64.4
2023-03-05T17:13:58.256Z,61.2
2023-03-05T17:15:15.361Z,59.7
2023-03-05T17:16:32.466Z,66.2
2023-03-05T17:17:49.571Z,60.9
2023-03-05T17:19:06.675Z,66.2
2023-03-05T17:20:23.780Z,61.7
2023-03-05T17:21:40.885Z,55.5
2023-03-05T17:22:57.990Z,67
2023-03-05T17:24:14.111Z,58.3
2023-03-05T17:25:31.216Z,63.6
2023-03-05T17:26:48.320Z,63.4
2023-03-05T17:28:05.426Z,65.2
2023-03-05T17:29:22.531Z,53.4
2023-03-05T17:30:39.635Z,65.9
2023-03-05T17:31:56.740Z,52.3
2023-03-05T17:33:13.845Z,62.3
2023-03-05T17:34:30.950Z,67.5
2023-03-05T17:35:48.055Z,63.1
2023-03-05T17:37:05.161Z,62.6
2023-03-05T17:39:39.371Z,61.8
2023-03-05T17:42:12.597Z,51.4
2023-03-05T17:43:29.702Z,60.1
2023-03-05T17:44:46.807Z,61.7
2023-03-05T17:46:03.912Z,84.2
2023-03-05T17:47:21.017Z,84.7
2023-03-05T17:48:38.123Z,83.6
2023-03-05T17:49:55.228Z,85.7
2023-03-05T17:51:12.333Z,85.7
2023-03-05T17:52:29.438Z,69.4
2023-03-05T17:55:03.648Z,64.7
2023-03-05T17:56:19.774Z,65.2
2023-03-05T17:57:35.896Z,58.4
2023-03-05T17:58:53.001Z,61
2023-03-05T18:00:10.106Z,67
2023-03-05T18:01:27.211Z,62.1
2023-03-05T18:02:44.316Z,61.8
2023-03-05T18:04:01.421Z,62.5
2023-03-05T18:05:18.527Z,54.9
2023-03-05T18:06:35.632Z,65.2
2023-03-05T18:07:52.737Z,64.1
2023-03-05T18:09:09.842Z,56